Αναφορές METAR Αεροδρομίων

 

LGTS - THESSALONIKI - GREECE
Ενημερώθηκε: 22/10/2017 18:20
Αίθριος
Αίθριος
 Ανεμος από Ν
Ανεμος: Ν 17 km/h
Θερμοκρασία: 23°C
Σημ. Δρόσου: 9°C
Υγρασία: 41%
Βαρόμετρο: 1011 hPa
Περίληψη: Αίθριος
Visibility: greater than 10 km
2017/10/22 15:20 LGTS 221520Z 17009KT CAVOK 23/09 Q1011 NOSIG
LGLR - LARTISA - GREECE
Ενημερώθηκε: 22/10/2017 17:50
Αίθριος
Αίθριος
 Ανεμος από Α
Ανεμος: Α 17 km/h
Θερμοκρασία: 25°C
Σημ. Δρόσου: 6°C
Υγρασία: 30%
Βαρόμετρο: 1011 hPa
Περίληψη: Αίθριος
Visibility: greater than 10 km
2017/10/22 14:50 LGLR 221450Z 09009KT CAVOK 25/06 Q1011 RMK SCT180 BLU
 
LGKZ - KOZANI - GREECE
Ενημερώθηκε: 22/10/2017 17:50
Αίθριος
Αίθριος
 Ανεμος από calm
Ανεμος: Απνοια
Θερμοκρασία: 23°C
Σημ. Δρόσου: 2°C
Υγρασία: 25%
Βαρόμετρο: 1013 hPa
Περίληψη: Αίθριος
Visibility: greater than 10 km
2017/10/22 14:50 LGKZ 221450Z 00000KT CAVOK 23/02 Q1013
LGKV - KAVALA - GREECE
Ενημερώθηκε: 22/10/2017 18:20
Αραιές Νεφώσεις
Αραιές Νεφώσεις
 Ανεμος από Α
Ανεμος: Α 9 km/h
Θερμοκρασία: 21°C
Σημ. Δρόσου: 14°C
Υγρασία: 64%
Βαρόμετρο: 1013 hPa
Clouds: Αραιές Νεφώσεις
Visibility: 10 km
Cloud details: Αραιές Νεφώσεις 762 m
2017/10/22 15:20 LGKV 221520Z 08005KT 9999 FEW025 21/14 Q1013
 
LGIO - IOANNINA - GREECE
Ενημερώθηκε: 22/10/2017 18:20
Αραιές Νεφώσεις
Αραιές Νεφώσεις
 Ανεμος από varies
Ανεμος: varies 0 km/h
Θερμοκρασία: 21°C
Σημ. Δρόσου: 11°C
Υγρασία: 53%
Βαρόμετρο: 1014 hPa
Clouds: Αραιές Νεφώσεις
Visibility: 10 km
Cloud details: Αραιές Νεφώσεις 914 m
2017/10/22 15:20 LGIO 221520Z /////KT 9999 FEW030 21/11 Q1014
LGBL - BOLOS - GREECE
Ενημερώθηκε: 22/10/2017 18:20
Αίθριος
Αίθριος
 Ανεμος από ΑΝΑ
Ανεμος: ΑΝΑ 15 km/h
Θερμοκρασία: 23°C
Σημ. Δρόσου: 14°C
Υγρασία: 57%
Βαρόμετρο: 1011 hPa
Περίληψη: Αίθριος
Visibility: greater than 10 km
2017/10/22 15:20 LGBL 221520Z 12008KT CAVOK 23/14 Q1011
 
LGMT - MITILINI - GREECE
Ενημερώθηκε: 22/10/2017 18:20
Αίθριος
Αίθριος
 Ανεμος από calm
Ανεμος: Απνοια
Θερμοκρασία: 22°C
Σημ. Δρόσου: 15°C
Υγρασία: 65%
Βαρόμετρο: 1013 hPa
Περίληψη: Αίθριος
Visibility: greater than 10 km
2017/10/22 15:20 LGMT 221520Z 00000KT CAVOK 22/15 Q1013
LGAV - ATHENS - GREECE
Ενημερώθηκε: 22/10/2017 18:20
Αραιές Νεφώσεις
Αραιές Νεφώσεις
 Ανεμος από ΝΝΔ
Ανεμος: ΝΝΔ 15 km/h
Θερμοκρασία: 22°C
Σημ. Δρόσου: 15°C
Υγρασία: 65%
Βαρόμετρο: 1013 hPa
Clouds: Αραιές Νεφώσεις
Visibility: 10 km
Cloud details: Αραιές Νεφώσεις 914 m
2017/10/22 15:20 LGAV 221520Z 21008KT 9999 FEW030 22/15 Q1013 NOSIG
 
LGRP - RODOS - GREECE
Ενημερώθηκε: 22/10/2017 18:20
Αίθριος
Αίθριος
 Ανεμος από ΔΝΔ
Ανεμος: ΔΝΔ 15 km/h
Θερμοκρασία: 23°C
Σημ. Δρόσου: 15°C
Υγρασία: 61%
Βαρόμετρο: 1011 hPa
Περίληψη: Αίθριος
Visibility: greater than 10 km
2017/10/22 15:20 LGRP 221520Z 24008KT CAVOK 23/15 Q1011 NOSIG
LGIR - HRAKLIO/KRITI - GREECE
Ενημερώθηκε: 22/10/2017 18:20
Αραιές Νεφώσεις
Αραιές Νεφώσεις
 Ανεμος από ΒΒΔ
Ανεμος: ΒΒΔ 7 km/h
Θερμοκρασία: 22°C
Σημ. Δρόσου: 19°C
Υγρασία: 83%
Βαρόμετρο: 1013 hPa
Clouds: Αραιές Νεφώσεις
Visibility: 10 km
Cloud details: Αραιές Νεφώσεις 762 m
2017/10/22 15:20 LGIR 221520Z 34004KT 9999 FEW025 22/19 Q1013 NOSIG
 
LGMK - MIKONOS - GREECE
Ενημερώθηκε: 22/10/2017 18:20
Αίθριος
Αίθριος
 Ανεμος από varies
Ανεμος: varies 6 km/h
Θερμοκρασία: 22°C
Σημ. Δρόσου: 14°C
Υγρασία: 61%
Βαρόμετρο: 1013 hPa
Περίληψη: Αίθριος
Visibility: greater than 10 km
2017/10/22 15:20 LGMK 221520Z VRB03KT CAVOK 22/14 Q1013
LGKR - KERKIRA - GREECE
Ενημερώθηκε: 22/10/2017 18:20
Αραιές Νεφώσεις
Αραιές Νεφώσεις
 Ανεμος από ΒΔ
Ανεμος: ΒΔ 7 km/h
Θερμοκρασία: 23°C
Σημ. Δρόσου: 16°C
Υγρασία: 65%
Βαρόμετρο: 1014 hPa
Clouds: Αραιές Νεφώσεις
Visibility: 10 km
Cloud details: Αραιές Νεφώσεις 610 m
2017/10/22 15:20 LGKR 221520Z 32004KT 9999 FEW020 23/16 Q1014 NOSIG